Time;durP1;ratioP1;P1;durP2;ratioP2;P2;SDS_P1;SDS_P2;PMS_P1;PMS_P2;Temp;Humidity;BMP_temperature;BMP_pressure;BME280_temperature;BME280_humidity;BME280_pressure;Samples;Min_cycle;Max_cycle;Signal;HPM_P1;HPM_P2
2022/06/17 00:00:15;;;;;;;0.70;0.50;;;21.40;1.00;;;;;;5073346;28;20774;-77
2022/06/17 00:02:42;;;;;;;0.70;0.47;;;21.40;1.00;;;;;;5081149;28;20541;-77
2022/06/17 00:05:10;;;;;;;0.50;0.40;;;21.30;1.00;;;;;;5076806;28;20536;-76
2022/06/17 00:07:39;;;;;;;0.60;0.50;;;21.30;1.00;;;;;;5077550;28;20784;-76
2022/06/17 00:10:17;;;;;;;0.93;0.50;;;21.30;1.00;;;;;;5079279;28;20815;-76
2022/06/17 00:12:44;;;;;;;0.80;0.53;;;21.40;1.00;;;;;;5113584;28;20567;-76
2022/06/17 00:15:14;;;;;;;0.67;0.60;;;21.40;1.00;;;;;;5118494;28;20449;-76
2022/06/17 00:17:42;;;;;;;0.97;0.43;;;21.30;1.00;;;;;;5117741;28;20458;-76
2022/06/17 00:20:14;;;;;;;0.70;0.50;;;21.40;1.00;;;;;;5098704;28;20877;-76
2022/06/17 00:22:43;;;;;;;1.60;0.70;;;21.30;1.00;;;;;;5077452;28;20450;-76
2022/06/17 00:25:26;;;;;;;2.10;0.60;;;21.30;1.00;;;;;;5077302;28;20926;-76
2022/06/17 00:27:54;;;;;;;0.60;0.50;;;21.30;1.00;;;;;;5077483;28;20470;-76
2022/06/17 00:30:24;;;;;;;0.90;0.40;;;21.30;1.00;;;;;;5075366;28;20544;-76
2022/06/17 00:32:53;;;;;;;1.10;0.90;;;21.20;1.00;;;;;;5096610;28;20430;-76
2022/06/17 00:35:20;;;;;;;0.50;0.40;;;21.10;1.00;;;;;;5097511;28;20503;-76
2022/06/17 00:37:47;;;;;;;0.80;0.50;;;21.00;1.00;;;;;;5091712;28;20455;-76
2022/06/17 00:40:20;;;;;;;0.80;0.50;;;21.10;1.00;;;;;;5077530;28;20977;-76
2022/06/17 00:42:49;;;;;;;0.70;0.50;;;21.10;1.00;;;;;;5077261;28;20869;-76
2022/06/17 00:45:39;;;;;;;0.60;0.47;;;21.20;1.00;;;;;;5077208;28;20505;-77
2022/06/17 00:48:13;;;;;;;0.67;0.50;;;21.10;1.00;;;;;;5087817;28;20855;-77
2022/06/17 00:50:45;;;;;;;0.60;0.50;;;20.90;1.00;;;;;;5096665;28;20877;-76
2022/06/17 00:53:18;;;;;;;0.93;0.57;;;20.90;1.00;;;;;;5096490;28;20454;-77
2022/06/17 00:55:56;;;;;;;0.97;0.50;;;20.80;1.00;;;;;;5093706;28;20817;-77
2022/06/17 00:58:29;;;;;;;1.20;0.70;;;20.90;1.00;;;;;;5058132;28;20461;-77
2022/06/17 01:01:08;;;;;;;1.10;0.50;;;20.90;1.00;;;;;;5076553;28;20833;-77
2022/06/17 01:03:38;;;;;;;0.77;0.50;;;20.90;1.00;;;;;;5075421;28;20439;-76
2022/06/17 01:06:09;;;;;;;1.10;0.53;;;20.90;1.00;;;;;;5060906;28;20809;-77
2022/06/17 01:11:32;;;;;;;0.70;0.50;;;20.70;1.00;;;;;;5098253;28;20428;-77
2022/06/17 01:14:00;;;;;;;0.77;0.50;;;20.70;1.00;;;;;;5076980;28;20470;-77
2022/06/17 01:16:32;;;;;;;0.90;0.50;;;20.70;1.00;;;;;;5076953;28;20842;-76
2022/06/17 01:19:04;;;;;;;0.60;0.50;;;20.70;1.00;;;;;;5079587;28;20512;-75
2022/06/17 01:21:38;;;;;;;0.90;0.50;;;20.70;1.00;;;;;;5080466;28;20948;-76
2022/06/17 01:24:09;;;;;;;0.63;0.50;;;20.70;1.00;;;;;;5073464;28;20978;-76
2022/06/17 01:26:36;;;;;;;0.77;0.50;;;20.70;1.00;;;;;;5040439;28;20487;-76
2022/06/17 01:29:03;;;;;;;2.10;0.50;;;20.70;1.00;;;;;;5040619;28;20772;-76
2022/06/17 01:31:31;;;;;;;0.70;0.50;;;20.70;1.00;;;;;;5040747;28;20541;-76
2022/06/17 01:33:59;;;;;;;0.70;0.50;;;20.80;1.00;;;;;;5040984;28;20907;-76
2022/06/17 01:36:30;;;;;;;1.00;0.60;;;20.70;1.00;;;;;;5040221;28;20436;-76
2022/06/17 01:38:59;;;;;;;0.80;0.60;;;20.60;1.00;;;;;;5040115;28;20799;-74
2022/06/17 01:41:34;;;;;;;0.70;0.50;;;20.60;1.00;;;;;;5044396;28;20487;-75
2022/06/17 01:44:06;;;;;;;0.80;0.50;;;20.50;1.00;;;;;;5059865;28;20462;-76
2022/06/17 01:46:36;;;;;;;1.00;0.50;;;20.30;1.00;;;;;;5059649;28;20451;-76
2022/06/17 01:49:08;;;;;;;1.23;0.60;;;20.20;1.00;;;;;;5059336;28;20486;-76
2022/06/17 01:51:38;;;;;;;0.80;0.57;;;20.00;1.00;;;;;;5053028;28;20469;-76
2022/06/17 01:54:14;;;;;;;0.70;0.50;;;19.90;1.00;;;;;;5059406;28;20459;-76
2022/06/17 01:56:44;;;;;;;0.70;0.50;;;19.70;1.00;;;;;;5059611;28;20485;-76
2022/06/17 01:59:17;;;;;;;0.60;0.50;;;19.80;1.00;;;;;;5059555;28;20440;-76
2022/06/17 02:01:49;;;;;;;0.83;0.50;;;19.80;1.00;;;;;;5039468;28;20444;-76
2022/06/17 02:04:23;;;;;;;0.70;0.60;;;19.80;1.00;;;;;;5039305;28;20845;-76
2022/06/17 02:06:57;;;;;;;0.80;0.60;;;19.70;1.00;;;;;;5039278;28;20523;-76
2022/06/17 02:09:24;;;;;;;0.90;0.53;;;19.60;1.00;;;;;;5038984;28;20496;-76
2022/06/17 02:11:53;;;;;;;1.30;0.50;;;19.50;1.00;;;;;;5044114;28;20519;-75
2022/06/17 02:14:20;;;;;;;0.73;0.50;;;19.50;1.00;;;;;;5079688;28;20504;-76
2022/06/17 02:16:53;;;;;;;0.90;0.40;;;19.50;1.00;;;;;;5079384;28;20497;-76
2022/06/17 02:19:28;;;;;;;1.00;0.60;;;19.50;1.00;;;;;;5078731;28;20439;-76
2022/06/17 02:22:02;;;;;;;0.63;0.50;;;19.60;1.00;;;;;;5078236;28;20457;-76
2022/06/17 02:24:31;;;;;;;0.70;0.50;;;19.60;1.00;;;;;;5077855;28;20916;-76
2022/06/17 02:27:04;;;;;;;0.80;0.43;;;19.70;1.00;;;;;;5085846;28;20461;-76
2022/06/17 02:29:35;;;;;;;1.30;0.60;;;19.80;1.00;;;;;;5119036;28;20513;-76
2022/06/17 02:32:05;;;;;;;1.13;0.60;;;19.80;1.00;;;;;;5119516;28;20453;-76
2022/06/17 02:34:33;;;;;;;3.63;0.60;;;19.90;1.00;;;;;;5119556;28;20528;-76
2022/06/17 02:37:06;;;;;;;0.63;0.50;;;20.00;1.00;;;;;;5094884;28;20458;-76
2022/06/17 02:39:43;;;;;;;0.70;0.40;;;19.90;1.00;;;;;;5098195;28;20457;-76
2022/06/17 02:42:22;;;;;;;1.20;0.50;;;19.80;1.00;;;;;;5098562;28;20894;-76
2022/06/17 02:44:51;;;;;;;1.10;0.60;;;19.60;1.00;;;;;;5092767;28;20494;-76
2022/06/17 02:47:18;;;;;;;0.70;0.47;;;19.50;1.00;;;;;;5119055;28;20518;-76
2022/06/17 02:49:49;;;;;;;0.70;0.50;;;19.50;1.00;;;;;;5098416;28;20523;-76
2022/06/17 02:52:21;;;;;;;0.60;0.40;;;19.40;1.00;;;;;;5079023;28;20925;-76
2022/06/17 02:54:55;;;;;;;0.77;0.40;;;19.40;1.00;;;;;;5078544;28;20447;-76
2022/06/17 02:57:26;;;;;;;0.60;0.57;;;19.40;1.00;;;;;;5078918;28;20456;-76
2022/06/17 03:00:01;;;;;;;0.80;0.50;;;19.40;1.00;;;;;;5109872;28;20464;-76
2022/06/17 03:02:33;;;;;;;0.50;0.40;;;19.40;1.00;;;;;;5120047;28;20896;-77
2022/06/17 03:05:08;;;;;;;0.70;0.60;;;19.30;1.00;;;;;;5119384;28;20468;-76
2022/06/17 03:07:44;;;;;;;0.60;0.40;;;19.20;1.00;;;;;;5106109;28;20439;-76
2022/06/17 03:10:33;;;;;;;0.63;0.50;;;19.20;1.00;;;;;;5078265;28;20755;-76
2022/06/17 03:13:09;;;;;;;1.00;0.63;;;19.30;1.00;;;;;;5077902;28;20513;-76
2022/06/17 03:15:41;;;;;;;1.27;0.60;;;19.00;1.00;;;;;;5077918;28;20442;-76
2022/06/17 03:18:08;;;;;;;0.90;0.53;;;18.90;1.00;;;;;;5108509;28;20514;-76
2022/06/17 03:20:37;;;;;;;1.93;0.60;;;18.90;1.00;;;;;;5118613;28;20737;-76
2022/06/17 03:23:08;;;;;;;1.27;0.50;;;19.10;1.00;;;;;;5117822;28;20505;-76
2022/06/17 03:25:42;;;;;;;0.97;0.60;;;19.10;1.00;;;;;;5113414;28;20465;-76
2022/06/17 03:28:15;;;;;;;1.73;0.60;;;19.20;1.00;;;;;;5083492;28;20463;-76
2022/06/17 03:30:48;;;;;;;0.80;0.50;;;19.20;1.00;;;;;;5117059;28;20555;-76
2022/06/17 03:33:34;;;;;;;0.90;0.60;;;19.00;1.00;;;;;;5117936;28;20460;-76
2022/06/17 03:36:05;;;;;;;0.80;0.60;;;18.90;1.00;;;;;;5088154;28;20450;-76
2022/06/17 03:38:45;;;;;;;1.10;0.50;;;18.70;1.00;;;;;;5076606;28;20454;-76
2022/06/17 03:41:19;;;;;;;0.70;0.53;;;18.50;1.00;;;;;;5077075;28;20881;-76
2022/06/17 03:43:53;;;;;;;1.00;0.50;;;18.40;1.00;;;;;;5076033;28;20560;-76
2022/06/17 03:46:25;;;;;;;1.03;0.70;;;18.40;1.00;;;;;;5115332;28;20483;-75
2022/06/17 03:48:59;;;;;;;0.83;0.50;;;18.50;1.00;;;;;;5118286;28;20480;-75
2022/06/17 03:51:28;;;;;;;0.53;0.50;;;18.50;1.00;;;;;;5117915;28;20860;-75
2022/06/17 03:53:56;;;;;;;0.70;0.60;;;18.50;1.00;;;;;;5111731;28;20540;-75
2022/06/17 03:56:25;;;;;;;1.23;0.60;;;18.50;1.00;;;;;;5097860;28;20476;-75
2022/06/17 03:58:56;;;;;;;1.03;0.60;;;18.50;1.00;;;;;;5096980;28;20493;-74
2022/06/17 04:01:29;;;;;;;1.43;0.60;;;18.50;1.00;;;;;;5096268;28;20502;-76
2022/06/17 04:04:01;;;;;;;1.77;0.50;;;18.60;1.00;;;;;;5107678;28;20496;-78
2022/06/17 04:06:32;;;;;;;0.80;0.60;;;18.60;1.00;;;;;;5117734;28;20542;-74
2022/06/17 04:09:02;;;;;;;0.80;0.60;;;18.70;1.00;;;;;;5117872;28;20795;-75
2022/06/17 04:11:36;;;;;;;2.53;0.60;;;18.80;1.00;;;;;;5104307;28;20652;-75
2022/06/17 04:14:14;;;;;;;1.60;0.53;;;18.70;1.00;;;;;;5088641;28;20554;-78
2022/06/17 04:16:45;;;;;;;1.00;0.60;;;18.80;1.00;;;;;;5097644;28;20767;-75
2022/06/17 04:19:16;;;;;;;0.90;0.60;;;18.70;1.00;;;;;;5097184;28;20453;-78
2022/06/17 04:21:43;;;;;;;0.67;0.50;;;18.70;1.00;;;;;;5101632;28;20545;-77
2022/06/17 04:24:14;;;;;;;1.30;0.60;;;18.80;1.00;;;;;;5115692;28;20552;-77
2022/06/17 04:26:43;;;;;;;0.80;0.60;;;18.80;1.00;;;;;;5117314;28;20539;-76
2022/06/17 04:29:18;;;;;;;0.70;0.57;;;18.70;1.00;;;;;;5114971;28;20535;-77
2022/06/17 04:31:48;;;;;;;0.90;0.60;;;18.60;1.00;;;;;;5109955;28;20448;-74
2022/06/17 04:34:17;;;;;;;0.80;0.60;;;18.60;1.00;;;;;;5117746;28;20494;-76
2022/06/17 04:36:49;;;;;;;0.80;0.60;;;18.50;1.00;;;;;;5117180;28;20845;-79
2022/06/17 04:39:23;;;;;;;0.77;0.60;;;18.50;1.00;;;;;;5107337;28;20547;-79
2022/06/17 04:41:54;;;;;;;1.60;0.60;;;18.30;1.00;;;;;;5116399;28;20872;-79
2022/06/17 04:44:22;;;;;;;0.80;0.60;;;18.40;1.00;;;;;;5116770;28;20530;-80
2022/06/17 04:46:52;;;;;;;0.80;0.60;;;18.50;1.00;;;;;;5115866;28;20779;-78
2022/06/17 04:49:23;;;;;;;0.93;0.60;;;18.60;1.00;;;;;;5105989;28;20561;-77
2022/06/17 04:51:50;;;;;;;0.60;0.50;;;18.80;1.00;;;;;;5116080;28;20445;-79
2022/06/17 04:54:18;;;;;;;0.70;0.57;;;18.90;1.00;;;;;;5097590;28;20899;-79
2022/06/17 04:56:47;;;;;;;1.10;0.60;;;19.00;1.00;;;;;;5110435;28;20503;-80
2022/06/17 04:59:31;;;;;;;1.33;0.50;;;19.10;1.00;;;;;;5112195;28;20911;-79
2022/06/17 05:01:59;;;;;;;1.00;0.50;;;19.10;1.00;;;;;;5115157;28;20531;-79
2022/06/17 05:04:28;;;;;;;0.70;0.50;;;19.20;1.00;;;;;;5115373;28;20453;-79
2022/06/17 05:06:55;;;;;;;1.00;0.60;;;19.40;1.00;;;;;;5106513;28;20515;-78
2022/06/17 05:09:25;;;;;;;1.20;0.50;;;19.50;1.00;;;;;;5123620;28;20505;-79
2022/06/17 05:11:55;;;;;;;0.60;0.50;;;19.40;1.00;;;;;;5122741;28;20472;-79
2022/06/17 05:14:31;;;;;;;0.60;0.50;;;19.30;1.00;;;;;;5122968;28;20459;-78
2022/06/17 05:16:58;;;;;;;0.70;0.40;;;19.30;1.00;;;;;;5117878;28;20502;-78
2022/06/17 05:19:25;;;;;;;4.50;0.60;;;19.40;1.00;;;;;;5123453;28;20453;-80
2022/06/17 05:21:53;;;;;;;0.90;0.70;;;19.20;1.00;;;;;;5125202;28;20452;-76
2022/06/17 05:24:20;;;;;;;0.80;0.60;;;19.20;1.00;;;;;;5108013;28;21060;-79
2022/06/17 05:26:47;;;;;;;0.97;0.63;;;19.10;1.00;;;;;;5094167;28;20592;-77
2022/06/17 05:29:14;;;;;;;0.70;0.50;;;19.10;1.00;;;;;;5094997;28;20492;-77
2022/06/17 05:31:49;;;;;;;0.80;0.60;;;19.30;1.00;;;;;;5095714;28;20446;-78
2022/06/17 05:34:16;;;;;;;1.37;0.60;;;19.30;1.00;;;;;;5088942;28;20461;-79
2022/06/17 05:36:43;;;;;;;0.70;0.47;;;19.30;1.00;;;;;;5095498;28;20484;-78
2022/06/17 05:39:10;;;;;;;1.43;0.50;;;19.20;1.00;;;;;;5095253;28;20496;-78
2022/06/17 05:41:37;;;;;;;0.80;0.50;;;19.30;1.00;;;;;;5095959;28;20492;-79
2022/06/17 05:44:05;;;;;;;0.70;0.60;;;19.30;1.00;;;;;;5104101;27;20499;-79
2022/06/17 05:46:32;;;;;;;1.47;0.50;;;19.30;1.00;;;;;;5115927;28;20779;-78
2022/06/17 05:49:01;;;;;;;1.20;0.50;;;19.20;1.00;;;;;;5116469;28;20546;-79
2022/06/17 05:51:28;;;;;;;0.80;0.60;;;19.20;1.00;;;;;;5109586;28;20513;-78
2022/06/17 05:53:55;;;;;;;0.80;0.60;;;19.30;1.00;;;;;;5095047;28;20468;-79
2022/06/17 05:56:22;;;;;;;0.80;0.60;;;19.30;1.00;;;;;;5116609;28;20822;-79
2022/06/17 05:58:49;;;;;;;1.00;0.60;;;19.30;1.00;;;;;;5118536;28;20958;-79
2022/06/17 06:01:16;;;;;;;1.00;0.50;;;19.40;1.00;;;;;;5109604;28;20459;-78
2022/06/17 06:03:43;;;;;;;0.63;0.50;;;19.50;1.00;;;;;;5108473;28;20547;-78
2022/06/17 06:06:11;;;;;;;1.00;0.80;;;19.60;1.00;;;;;;5118647;28;20479;-77
2022/06/17 06:08:38;;;;;;;1.33;0.70;;;19.70;1.00;;;;;;5118499;28;20907;-77
2022/06/17 06:11:06;;;;;;;0.80;0.50;;;19.80;1.00;;;;;;5105377;28;20457;-78
2022/06/17 06:13:34;;;;;;;0.60;0.50;;;19.90;1.00;;;;;;5119077;28;20484;-75
2022/06/17 06:16:02;;;;;;;0.90;0.50;;;20.20;1.00;;;;;;5119556;28;20476;-76
2022/06/17 06:18:31;;;;;;;1.07;0.60;;;20.30;1.00;;;;;;5118499;28;20457;-76
2022/06/17 06:21:00;;;;;;;0.80;0.70;;;20.50;1.00;;;;;;5099221;28;20871;-76
2022/06/17 06:23:28;;;;;;;1.40;1.00;;;20.70;1.00;;;;;;5104928;28;20740;-80
2022/06/17 06:26:00;;;;;;;0.97;0.70;;;20.80;1.00;;;;;;5106972;28;20477;-84
2022/06/17 06:28:32;;;;;;;2.70;1.20;;;21.00;1.00;;;;;;5100425;28;20473;-84
2022/06/17 06:31:03;;;;;;;1.00;0.60;;;21.10;1.00;;;;;;5096439;28;20519;-85
2022/06/17 06:33:30;;;;;;;0.70;0.60;;;21.00;1.00;;;;;;5098645;28;20460;-85
2022/06/17 06:35:57;;;;;;;0.80;0.60;;;21.10;1.00;;;;;;5099251;28;21067;-83
2022/06/17 06:38:24;;;;;;;1.17;0.60;;;21.10;1.00;;;;;;5098638;28;20460;-83
2022/06/17 06:40:52;;;;;;;0.77;0.50;;;21.10;1.00;;;;;;5099469;28;20425;-84
2022/06/17 06:43:21;;;;;;;1.67;0.60;;;21.00;1.00;;;;;;5100099;28;20446;-83
2022/06/17 06:45:51;;;;;;;0.90;0.60;;;21.00;1.00;;;;;;5100031;28;20543;-83
2022/06/17 06:48:21;;;;;;;1.37;0.60;;;20.70;1.00;;;;;;5099162;28;20469;-80
2022/06/17 06:50:48;;;;;;;0.90;0.60;;;20.50;1.00;;;;;;5100719;28;20492;-84
2022/06/17 06:53:15;;;;;;;0.90;0.60;;;20.30;1.00;;;;;;5100348;28;20485;-84
2022/06/17 06:55:43;;;;;;;0.93;0.60;;;20.30;1.00;;;;;;5102316;28;20446;-86
2022/06/17 06:58:14;;;;;;;0.90;0.60;;;20.40;1.00;;;;;;5102845;28;20432;-79
2022/06/17 07:00:43;;;;;;;1.67;0.50;;;20.40;1.00;;;;;;5103391;28;20458;-88
2022/06/17 07:03:13;;;;;;;0.80;0.53;;;20.60;1.00;;;;;;5102372;28;20471;-86
2022/06/17 07:05:42;;;;;;;2.93;0.60;;;20.90;1.00;;;;;;5105439;28;20473;-84
2022/06/17 07:08:18;;;;;;;1.20;0.60;;;21.00;1.00;;;;;;5110595;28;20467;-86
2022/06/17 07:10:50;;;;;;;1.13;0.60;;;21.00;1.00;;;;;;5114026;28;20199;-87
2022/06/17 07:13:19;;;;;;;0.90;0.70;;;21.30;1.00;;;;;;5104277;28;20489;-87
2022/06/17 07:15:47;;;;;;;1.00;0.70;;;21.50;1.00;;;;;;5099468;28;20488;-81
2022/06/17 07:18:17;;;;;;;1.70;0.67;;;21.70;1.00;;;;;;5097322;28;20469;-82
2022/06/17 07:20:47;;;;;;;0.90;0.60;;;21.80;1.00;;;;;;5097491;28;20469;-84
2022/06/17 07:23:16;;;;;;;1.33;0.67;;;21.90;1.00;;;;;;5097158;28;20437;-81
2022/06/17 07:25:43;;;;;;;0.83;0.60;;;22.00;1.00;;;;;;5097127;28;20485;-81
2022/06/17 07:28:14;;;;;;;2.10;0.70;;;22.10;1.00;;;;;;5096334;28;20441;-82
2022/06/17 07:30:44;;;;;;;1.33;0.53;;;22.20;1.00;;;;;;5096413;28;20453;-82
2022/06/17 07:33:11;;;;;;;1.07;0.50;;;22.30;1.00;;;;;;5095396;28;20538;-82
2022/06/17 07:35:39;;;;;;;0.90;0.60;;;22.40;1.00;;;;;;5096419;28;20437;-83
2022/06/17 07:40:51;;;;;;;2.77;0.70;;;22.40;1.00;;;;;;5093925;28;20475;-75
2022/06/17 07:43:18;;;;;;;0.83;0.60;;;22.50;1.00;;;;;;5095180;28;20555;-77
2022/06/17 07:45:50;;;;;;;1.40;0.70;;;22.60;1.00;;;;;;5093857;28;20477;-77
2022/06/17 07:48:18;;;;;;;1.00;0.60;;;22.70;1.00;;;;;;5093823;28;20625;-78
2022/06/17 07:50:47;;;;;;;2.97;1.60;;;22.70;1.00;;;;;;5094439;28;20549;-77
2022/06/17 07:53:14;;;;;;;1.20;0.90;;;22.90;1.00;;;;;;5095139;28;20544;-76
2022/06/17 07:55:42;;;;;;;1.10;0.70;;;23.00;1.00;;;;;;5094726;28;20450;-75
2022/06/17 07:58:12;;;;;;;3.87;0.70;;;23.00;1.00;;;;;;5096107;28;20446;-76
2022/06/17 08:00:41;;;;;;;1.03;0.70;;;23.00;1.00;;;;;;5093625;28;20485;-76
2022/06/17 08:03:11;;;;;;;1.77;0.70;;;23.00;1.00;;;;;;5109022;28;20461;-76
2022/06/17 08:05:40;;;;;;;0.90;0.70;;;23.10;1.00;;;;;;5077585;28;20893;-74
2022/06/17 08:08:08;;;;;;;1.57;0.70;;;23.10;1.00;;;;;;5089239;28;20984;-75
2022/06/17 08:10:36;;;;;;;2.00;0.80;;;23.10;1.00;;;;;;5075148;28;20577;-75
2022/06/17 08:13:04;;;;;;;0.63;0.60;;;23.20;1.00;;;;;;5083910;28;20568;-75
2022/06/17 08:15:31;;;;;;;0.80;0.60;;;23.20;1.00;;;;;;5076034;28;20525;-76
2022/06/17 08:17:58;;;;;;;0.80;0.70;;;23.30;1.00;;;;;;5074232;28;20550;-76
2022/06/17 08:20:30;;;;;;;1.27;0.87;;;23.30;1.00;;;;;;5079928;28;20827;-74
2022/06/17 08:22:57;;;;;;;1.63;0.90;;;23.40;1.00;;;;;;5095548;28;20919;-76
2022/06/17 08:25:24;;;;;;;0.80;0.70;;;23.50;1.00;;;;;;5094844;28;20445;-76
2022/06/17 08:27:54;;;;;;;4.60;0.70;;;23.70;1.00;;;;;;5083800;28;20474;-76
2022/06/17 08:33:34;;;;;;;0.90;0.80;;;23.70;1.00;;;;;;5090228;28;20809;-74
2022/06/17 08:36:07;;;;;;;0.90;0.60;;;23.80;1.00;;;;;;5078697;28;21060;-74
2022/06/17 08:38:36;;;;;;;0.93;0.67;;;23.70;1.00;;;;;;5073909;28;20462;-75
2022/06/17 08:41:13;;;;;;;3.60;0.70;;;23.80;1.00;;;;;;5074606;28;20732;-73
2022/06/17 08:44:08;;;;;;;1.20;0.60;;;24.00;1.00;;;;;;5074970;28;20455;-73
2022/06/17 08:46:53;;;;;;;1.10;0.70;;;24.10;1.00;;;;;;5072185;28;20936;-74
2022/06/17 08:49:45;;;;;;;1.07;0.60;;;24.20;1.00;;;;;;5070205;28;20446;-74
2022/06/17 08:52:29;;;;;;;1.50;1.30;;;24.20;1.00;;;;;;5074642;28;20549;-75
2022/06/17 08:55:08;;;;;;;1.00;0.67;;;24.30;1.00;;;;;;5074844;28;20435;-76
2022/06/17 08:57:43;;;;;;;2.23;1.10;;;24.20;1.00;;;;;;5073509;28;20520;-74
2022/06/17 09:00:16;;;;;;;0.83;0.63;;;24.30;1.00;;;;;;5073143;28;20516;-75
2022/06/17 09:02:59;;;;;;;0.70;0.60;;;24.30;1.00;;;;;;5071437;28;20541;-75
2022/06/17 09:05:44;;;;;;;0.93;0.60;;;24.20;1.00;;;;;;5072366;28;20832;-75
2022/06/17 09:08:34;;;;;;;1.00;0.70;;;24.30;1.00;;;;;;5072305;28;20971;-75
2022/06/17 09:11:35;;;;;;;1.33;0.70;;;24.40;1.00;;;;;;5072340;28;20494;-75
2022/06/17 09:14:22;;;;;;;1.23;0.70;;;24.60;1.00;;;;;;5073107;28;20481;-75
2022/06/17 09:16:58;;;;;;;1.43;0.70;;;24.60;1.00;;;;;;5073614;28;20900;-75
2022/06/17 09:19:32;;;;;;;0.80;0.60;;;24.80;1.00;;;;;;5073429;28;20478;-75
2022/06/17 09:22:03;;;;;;;0.70;0.60;;;24.80;1.00;;;;;;5072775;28;20813;-76
2022/06/17 09:24:37;;;;;;;1.13;0.80;;;24.90;1.00;;;;;;5070600;28;20442;-76
2022/06/17 09:27:06;;;;;;;2.45;0.70;;;25.10;1.00;;;;;;5071542;28;20505;-76
2022/06/17 09:29:39;;;;;;;1.53;0.77;;;25.10;1.00;;;;;;5072918;28;20320;-75
2022/06/17 09:32:09;;;;;;;0.70;0.60;;;25.00;1.00;;;;;;5091049;28;20492;-75
2022/06/17 09:34:45;;;;;;;0.87;0.70;;;25.10;1.00;;;;;;5110846;28;20468;-76
2022/06/17 09:37:17;;;;;;;0.70;0.60;;;25.30;1.00;;;;;;5090508;28;20499;-76
2022/06/17 09:39:52;;;;;;;1.33;0.70;;;25.40;1.00;;;;;;5115782;28;20867;-75
2022/06/17 09:42:24;;;;;;;0.80;0.60;;;25.40;1.00;;;;;;5095962;28;20513;-75
2022/06/17 09:44:56;;;;;;;1.00;0.60;;;25.50;1.00;;;;;;5104776;28;20539;-73
2022/06/17 09:47:29;;;;;;;0.80;0.70;;;25.60;1.00;;;;;;5117447;28;20476;-73
2022/06/17 09:50:07;;;;;;;0.80;0.70;;;25.70;1.00;;;;;;5111823;28;20456;-75
2022/06/17 09:52:38;;;;;;;0.67;0.60;;;25.90;1.00;;;;;;5095090;28;20549;-73
2022/06/17 09:55:16;;;;;;;1.17;0.70;;;26.00;1.00;;;;;;5089872;28;20545;-73
2022/06/17 09:57:47;;;;;;;0.80;0.60;;;26.20;1.00;;;;;;5095682;28;20449;-73
2022/06/17 10:00:18;;;;;;;0.70;0.50;;;26.20;1.00;;;;;;5092528;28;20531;-74
2022/06/17 10:02:50;;;;;;;0.80;0.67;;;26.30;1.00;;;;;;5100415;28;20479;-74
2022/06/17 10:05:30;;;;;;;1.27;0.60;;;26.30;1.00;;;;;;5104410;28;20808;-72
2022/06/17 10:08:07;;;;;;;2.97;1.43;;;26.20;1.00;;;;;;5076074;28;20531;-72
2022/06/17 10:10:47;;;;;;;1.10;0.70;;;26.50;1.00;;;;;;5090907;28;20552;-73
2022/06/17 10:13:24;;;;;;;0.77;0.60;;;26.60;1.00;;;;;;5105995;28;20479;-73
2022/06/17 10:18:57;;;;;;;1.47;0.60;;;27.00;1.00;;;;;;5103054;28;20436;-74
2022/06/17 10:21:36;;;;;;;0.90;0.60;;;27.30;1.00;;;;;;5110132;28;20556;-74
2022/06/17 10:24:10;;;;;;;1.23;0.60;;;27.30;1.00;;;;;;5115967;28;20539;-74
2022/06/17 10:26:54;;;;;;;1.83;0.60;;;27.40;1.00;;;;;;5114191;28;20548;-76
2022/06/17 10:29:47;;;;;;;1.67;0.63;;;27.80;1.00;;;;;;5115446;28;20483;-74
2022/06/17 10:32:15;;;;;;;1.00;0.60;;;27.80;1.00;;;;;;5074744;28;20824;-74
2022/06/17 10:34:47;;;;;;;0.80;0.60;;;27.80;1.00;;;;;;5074738;28;20500;-74
2022/06/17 10:37:15;;;;;;;0.70;0.60;;;28.10;1.00;;;;;;5102437;28;20482;-75
2022/06/17 10:39:43;;;;;;;0.70;0.60;;;28.50;1.00;;;;;;5116841;28;20480;-76
2022/06/17 10:42:16;;;;;;;0.90;0.60;;;28.30;1.00;;;;;;5114817;28;20459;-75
2022/06/17 10:44:46;;;;;;;0.70;0.60;;;28.10;1.00;;;;;;5091216;28;20465;-74
2022/06/17 10:47:29;;;;;;;0.77;0.60;;;28.30;1.00;;;;;;5095584;28;20521;-74
2022/06/17 10:50:00;;;;;;;0.63;0.50;;;28.80;1.00;;;;;;5101599;28;20514;-75
2022/06/17 10:52:35;;;;;;;0.93;0.60;;;29.30;1.00;;;;;;5113334;28;20555;-73
2022/06/17 10:55:04;;;;;;;0.63;0.50;;;29.60;1.00;;;;;;5110976;28;20550;-73
2022/06/17 10:57:37;;;;;;;0.70;0.60;;;29.90;1.00;;;;;;5115560;28;20448;-73
2022/06/17 11:00:22;;;;;;;0.80;0.50;;;30.00;1.00;;;;;;5116222;28;20440;-74
2022/06/17 11:02:49;;;;;;;1.07;0.50;;;30.50;1.00;;;;;;5079937;28;20460;-75
2022/06/17 11:05:31;;;;;;;3.43;0.60;;;30.80;1.00;;;;;;5096310;28;20530;-74
2022/06/17 11:08:00;;;;;;;0.90;0.60;;;31.00;1.00;;;;;;5094730;28;20489;-73
2022/06/17 11:10:32;;;;;;;2.37;1.43;;;31.30;1.00;;;;;;5076895;28;20925;-74
2022/06/17 11:13:05;;;;;;;1.80;1.20;;;31.40;1.00;;;;;;5094190;28;20488;-73
2022/06/17 11:15:35;;;;;;;0.90;0.60;;;31.50;1.00;;;;;;5093279;28;20499;-73
2022/06/17 11:18:21;;;;;;;0.67;0.60;;;31.90;1.00;;;;;;5082456;28;20735;-73
2022/06/17 11:20:57;;;;;;;0.50;0.40;;;31.80;1.00;;;;;;5095435;28;20469;-73
2022/06/17 11:23:28;;;;;;;0.60;0.50;;;31.80;1.00;;;;;;5080166;28;20527;-73
2022/06/17 11:26:09;;;;;;;0.60;0.50;;;31.70;1.00;;;;;;5106963;28;20453;-72
2022/06/17 11:29:10;;;;;;;0.50;0.40;;;31.70;1.00;;;;;;5082908;28;20771;-73
2022/06/17 11:31:41;;;;;;;0.70;0.57;;;31.60;1.00;;;;;;5099874;28;20466;-79
2022/06/17 11:34:16;;;;;;;0.83;0.50;;;31.60;1.00;;;;;;5085039;28;20458;-78
2022/06/17 11:36:59;;;;;;;0.60;0.50;;;31.70;1.00;;;;;;5073633;28;20469;-78
2022/06/17 11:39:33;;;;;;;1.00;0.60;;;31.80;1.00;;;;;;5091786;28;20507;-77
2022/06/17 11:42:02;;;;;;;0.80;0.50;;;31.80;1.00;;;;;;5095110;28;20457;-80
2022/06/17 11:44:30;;;;;;;0.60;0.53;;;31.90;1.00;;;;;;5090399;28;20768;-79
2022/06/17 11:47:02;;;;;;;1.47;0.50;;;31.90;1.00;;;;;;5095435;28;20461;-79
2022/06/17 11:49:34;;;;;;;0.63;0.47;;;31.90;1.00;;;;;;5093577;28;20465;-79
2022/06/17 11:52:05;;;;;;;0.60;0.50;;;31.70;1.00;;;;;;5081003;28;20471;-79
2022/06/17 11:54:35;;;;;;;0.60;0.50;;;31.80;1.00;;;;;;5093506;28;20199;-80
2022/06/17 11:57:15;;;;;;;0.83;0.50;;;30.60;99.90;;;;;;5095676;28;20493;-80
2022/06/17 11:59:46;;;;;;;0.70;0.60;;;30.90;99.90;;;;;;5088466;28;20447;-79
2022/06/17 12:02:15;;;;;;;0.50;0.40;;;31.50;1.00;;;;;;5091414;28;20631;-76
2022/06/17 12:04:45;;;;;;;0.50;0.40;;;31.70;1.00;;;;;;5086227;28;20469;-76
2022/06/17 12:07:44;;;;;;;1.37;1.17;;;31.70;99.90;;;;;;5080154;28;20545;-76
2022/06/17 12:10:24;;;;;;;1.63;1.00;;;31.50;99.90;;;;;;5087754;28;20928;-77
2022/06/17 12:12:55;;;;;;;0.70;0.40;;;32.00;99.90;;;;;;5079979;28;20926;-80
2022/06/17 12:15:28;;;;;;;0.60;0.50;;;31.60;99.90;;;;;;5092699;28;20485;-79
2022/06/17 12:17:59;;;;;;;0.73;0.57;;;31.20;99.90;;;;;;5094994;28;20481;-79
2022/06/17 12:20:40;;;;;;;0.60;0.40;;;31.60;99.90;;;;;;5093200;28;20739;-80
2022/06/17 12:23:11;;;;;;;0.60;0.40;;;31.80;99.90;;;;;;5094318;28;20524;-79
2022/06/17 12:25:45;;;;;;;1.20;0.40;;;31.10;99.90;;;;;;5094803;28;20449;-79
2022/06/17 12:28:21;;;;;;;2.40;0.57;;;31.60;99.90;;;;;;5093126;28;20816;-79
2022/06/17 12:31:01;;;;;;;1.03;0.50;;;31.80;99.90;;;;;;5093941;28;20469;-81
2022/06/17 12:33:39;;;;;;;0.70;0.40;;;31.40;99.90;;;;;;5095827;28;20437;-78
2022/06/17 12:36:13;;;;;;;0.57;0.40;;;32.10;99.90;;;;;;5094689;28;20552;-76
2022/06/17 12:38:48;;;;;;;0.60;0.40;;;32.40;99.90;;;;;;5094238;28;20501;-77
2022/06/17 12:41:23;;;;;;;0.63;0.43;;;32.10;99.90;;;;;;5094400;28;20826;-76
2022/06/17 12:44:10;;;;;;;0.50;0.37;;;32.60;99.90;;;;;;5094152;28;20445;-76
2022/06/17 12:46:42;;;;;;;0.67;0.50;;;32.60;99.90;;;;;;5094382;28;20446;-76
2022/06/17 12:53:20;;;;;;;0.47;0.40;;;32.90;99.90;;;;;;5074591;28;20461;-77
2022/06/17 12:56:21;;;;;;;0.67;0.60;;;32.40;99.90;;;;;;5089093;28;20457;-77
2022/06/17 13:05:09;;;;;;;0.70;0.50;;;31.80;99.90;;;;;;5095526;28;20433;-78
2022/06/17 13:08:03;;;;;;;0.50;0.40;;;32.10;99.90;;;;;;5083071;28;20504;-76
2022/06/17 13:11:05;;;;;;;0.70;0.30;;;32.10;99.90;;;;;;5084313;28;20471;-78
2022/06/17 13:14:09;;;;;;;0.80;0.50;;;31.80;99.90;;;;;;5086310;28;20453;-75
2022/06/17 13:16:39;;;;;;;0.70;0.40;;;32.20;99.90;;;;;;5095130;28;20546;-79
2022/06/17 13:19:11;;;;;;;0.53;0.40;;;32.60;99.90;;;;;;5095779;28;20778;-78
2022/06/17 13:21:47;;;;;;;0.50;0.40;;;32.80;99.90;;;;;;5099426;28;20457;-77
2022/06/17 13:24:31;;;;;;;1.47;0.40;;;33.00;99.90;;;;;;5099379;28;20475;-78
2022/06/17 13:27:05;;;;;;;0.47;0.30;;;32.70;99.90;;;;;;5081496;28;20454;-78
2022/06/17 13:29:41;;;;;;;0.60;0.40;;;32.80;99.90;;;;;;5080275;28;20482;-80
2022/06/17 13:32:15;;;;;;;0.80;0.30;;;32.70;99.90;;;;;;5061708;28;20905;-78
2022/06/17 13:34:46;;;;;;;0.70;0.50;;;32.30;99.90;;;;;;5082246;28;20504;-77
2022/06/17 13:37:18;;;;;;;0.73;0.40;;;32.00;99.90;;;;;;5092542;28;20499;-77
2022/06/17 13:39:49;;;;;;;0.73;0.50;;;32.20;99.90;;;;;;5097651;28;20441;-78
2022/06/17 13:42:19;;;;;;;0.40;0.30;;;32.40;99.90;;;;;;5098024;28;20510;-79
2022/06/17 13:44:56;;;;;;;0.50;0.40;;;31.90;99.90;;;;;;5102681;28;20927;-78